createdAt,value
2017-10-30T00:00:17.337Z,7.63
2017-10-30T00:01:17.302Z,7.58
2017-10-30T00:02:17.281Z,7.54
2017-10-30T00:03:17.251Z,7.54
2017-10-30T00:04:17.214Z,7.58
2017-10-30T00:05:17.188Z,7.67
2017-10-30T00:06:17.162Z,7.70
2017-10-30T00:07:17.130Z,7.79
2017-10-30T00:08:17.108Z,7.67
2017-10-30T00:09:17.325Z,7.67
2017-10-30T00:10:17.049Z,7.62
2017-10-30T00:11:17.021Z,7.63
2017-10-30T00:12:16.989Z,7.74
2017-10-30T00:13:16.959Z,7.63
2017-10-30T00:14:16.938Z,7.67
2017-10-30T00:15:17.174Z,7.58
2017-10-30T00:16:16.877Z,7.63
2017-10-30T00:17:16.848Z,7.66
2017-10-30T00:18:16.826Z,7.63
2017-10-30T00:19:16.791Z,7.67
2017-10-30T00:20:16.774Z,7.55
2017-10-30T00:21:16.741Z,7.60
2017-10-30T00:22:16.711Z,7.66
2017-10-30T00:23:16.683Z,7.57
2017-10-30T00:24:16.665Z,7.62
2017-10-30T00:25:16.630Z,7.60
2017-10-30T00:26:16.593Z,7.67
2017-10-30T00:27:16.569Z,7.73
2017-10-30T00:28:16.536Z,7.63
2017-10-30T00:29:16.509Z,7.69
2017-10-30T00:30:16.491Z,7.60
2017-10-30T00:31:16.457Z,7.67
2017-10-30T00:32:16.430Z,7.70
2017-10-30T00:33:16.399Z,7.60
2017-10-30T00:34:16.371Z,7.57
2017-10-30T00:35:16.351Z,7.62
2017-10-30T00:36:16.315Z,7.62
2017-10-30T00:37:16.288Z,7.76
2017-10-30T00:38:16.260Z,7.79
2017-10-30T00:39:16.482Z,7.77
2017-10-30T00:40:16.203Z,7.69
2017-10-30T00:41:16.172Z,7.62
2017-10-30T00:42:16.147Z,7.69
2017-10-30T00:43:16.118Z,7.69
2017-10-30T00:44:16.085Z,7.60
2017-10-30T00:45:16.064Z,7.77
2017-10-30T00:46:16.028Z,7.77
2017-10-30T00:47:16.003Z,7.77
2017-10-30T00:48:15.977Z,7.74
2017-10-30T00:49:15.945Z,7.71
2017-10-30T00:50:15.923Z,7.77
2017-10-30T00:51:16.142Z,7.63
2017-10-30T00:52:15.867Z,7.84
2017-10-30T00:53:15.834Z,7.79
2017-10-30T00:54:15.803Z,7.79
2017-10-30T00:55:15.776Z,7.73
2017-10-30T00:56:15.750Z,7.71
2017-10-30T00:57:15.968Z,7.74
2017-10-30T00:58:15.699Z,7.69
2017-10-30T00:59:15.669Z,7.67
2017-10-30T01:00:15.643Z,7.74
2017-10-30T01:01:15.610Z,7.67
2017-10-30T01:02:15.579Z,7.69
2017-10-30T01:03:15.855Z,7.81
2017-10-30T01:04:15.529Z,7.77
2017-10-30T01:05:15.496Z,7.63
2017-10-30T01:06:15.474Z,7.63
2017-10-30T01:07:15.437Z,7.71
2017-10-30T01:08:15.416Z,7.55
2017-10-30T01:09:15.380Z,7.74
2017-10-30T01:10:15.357Z,7.82
2017-10-30T01:11:15.333Z,7.76
2017-10-30T01:12:15.297Z,7.91
2017-10-30T01:13:15.274Z,7.77
2017-10-30T01:14:15.241Z,7.81
2017-10-30T01:15:15.479Z,7.79
2017-10-30T01:16:15.188Z,7.76
2017-10-30T01:17:15.161Z,7.76
2017-10-30T01:18:15.136Z,7.77
2017-10-30T01:19:15.102Z,7.74
2017-10-30T01:20:15.079Z,7.62
2017-10-30T01:21:15.698Z,7.66
2017-10-30T01:22:15.014Z,7.63
2017-10-30T01:23:15.004Z,7.67
2017-10-30T01:24:14.965Z,7.63
2017-10-30T01:25:14.929Z,7.63
2017-10-30T01:26:14.903Z,7.57
2017-10-30T01:27:14.880Z,7.73
2017-10-30T01:28:14.850Z,7.76
2017-10-30T01:29:14.821Z,7.69
2017-10-30T01:30:14.793Z,7.76
2017-10-30T01:31:14.761Z,7.71
2017-10-30T01:32:15.034Z,7.60
2017-10-30T01:33:14.707Z,7.60
2017-10-30T01:34:14.681Z,7.60
2017-10-30T01:35:14.652Z,7.58
2017-10-30T01:36:14.631Z,7.62
2017-10-30T01:37:14.591Z,7.69
2017-10-30T01:38:14.568Z,7.76
2017-10-30T01:39:14.540Z,7.67
2017-10-30T01:40:14.509Z,7.62
2017-10-30T01:41:14.480Z,7.62
2017-10-30T01:42:14.452Z,7.58
2017-10-30T01:43:14.428Z,7.69
2017-10-30T01:44:14.657Z,7.62
2017-10-30T01:45:14.370Z,7.69
2017-10-30T01:46:14.343Z,7.60
2017-10-30T01:47:14.320Z,7.58
2017-10-30T01:48:14.282Z,7.57
2017-10-30T01:49:14.255Z,7.58
2017-10-30T01:50:14.229Z,7.52
2017-10-30T01:51:14.206Z,7.62
2017-10-30T01:52:14.172Z,7.58
2017-10-30T01:53:14.147Z,7.62
2017-10-30T01:54:14.122Z,7.66
2017-10-30T01:55:14.087Z,7.57
2017-10-30T01:56:14.054Z,7.52
2017-10-30T01:57:14.028Z,7.51
2017-10-30T01:58:13.996Z,7.63
2017-10-30T01:59:13.970Z,7.54
2017-10-30T02:00:13.942Z,7.48
2017-10-30T02:01:14.222Z,7.41
2017-10-30T02:02:13.892Z,7.51
2017-10-30T02:03:13.856Z,7.47
2017-10-30T02:04:13.830Z,7.44
2017-10-30T02:05:13.799Z,7.47
2017-10-30T02:06:13.772Z,7.41
2017-10-30T02:07:13.744Z,7.51
2017-10-30T02:08:13.719Z,7.50
2017-10-30T02:09:13.692Z,7.47
2017-10-30T02:10:13.663Z,7.48
2017-10-30T02:11:13.638Z,7.47
2017-10-30T02:12:13.606Z,7.52
2017-10-30T02:13:13.583Z,7.62
2017-10-30T02:14:13.546Z,7.52
2017-10-30T02:15:13.526Z,7.45
2017-10-30T02:16:13.491Z,7.52
2017-10-30T02:17:13.458Z,7.48
2017-10-30T02:18:13.438Z,7.45
2017-10-30T02:19:13.660Z,7.42
2017-10-30T02:20:13.375Z,7.33
2017-10-30T02:21:13.356Z,7.47
2017-10-30T02:22:13.326Z,7.48
2017-10-30T02:23:13.291Z,7.54
2017-10-30T02:24:13.264Z,7.58
2017-10-30T02:25:13.236Z,7.47
2017-10-30T02:26:13.218Z,7.45
2017-10-30T02:27:13.178Z,7.48
2017-10-30T02:28:13.149Z,7.37
2017-10-30T02:29:13.127Z,7.34
2017-10-30T02:30:13.094Z,7.39
2017-10-30T02:31:13.062Z,7.36
2017-10-30T02:32:13.036Z,7.37
2017-10-30T02:33:13.012Z,7.21
2017-10-30T02:34:12.979Z,7.26
2017-10-30T02:35:12.953Z,7.24
2017-10-30T02:36:12.920Z,7.23
2017-10-30T02:37:12.896Z,7.24
2017-10-30T02:38:12.881Z,7.24
2017-10-30T02:39:12.836Z,7.26
2017-10-30T02:40:12.814Z,7.18
2017-10-30T02:41:12.788Z,7.21
2017-10-30T02:42:13.005Z,7.29
2017-10-30T02:43:12.727Z,7.23
2017-10-30T02:44:12.692Z,7.29
2017-10-30T02:45:12.672Z,7.21
2017-10-30T02:46:12.641Z,7.21
2017-10-30T02:47:12.618Z,7.21
2017-10-30T02:48:12.582Z,7.16
2017-10-30T02:49:12.555Z,7.15
2017-10-30T02:50:12.532Z,7.12
2017-10-30T02:51:12.500Z,7.12
2017-10-30T02:52:12.469Z,7.09
2017-10-30T02:53:12.438Z,7.08
2017-10-30T02:54:12.667Z,7.09
2017-10-30T02:55:12.386Z,7.14
2017-10-30T02:56:12.354Z,7.04
2017-10-30T02:57:12.323Z,7.09
2017-10-30T02:58:12.307Z,7.11
2017-10-30T02:59:12.278Z,7.23
2017-10-30T03:00:12.239Z,7.16
2017-10-30T03:01:12.228Z,7.11
2017-10-30T03:02:12.185Z,7.05
2017-10-30T03:03:12.158Z,7.11
2017-10-30T03:04:12.124Z,7.09
2017-10-30T03:05:12.109Z,7.09
2017-10-30T03:06:12.321Z,7.01
2017-10-30T03:07:12.044Z,6.93
2017-10-30T03:08:12.014Z,7.08
2017-10-30T03:09:11.988Z,7.07
2017-10-30T03:10:11.953Z,7.07
2017-10-30T03:11:11.928Z,6.90
2017-10-30T03:12:12.157Z,7.05
2017-10-30T03:13:11.883Z,6.93
2017-10-30T03:14:11.847Z,6.91
2017-10-30T03:15:11.821Z,6.94
2017-10-30T03:16:11.780Z,6.99
2017-10-30T03:17:11.761Z,6.91
2017-10-30T03:18:12.083Z,6.83
2017-10-30T03:19:11.701Z,6.73
2017-10-30T03:20:11.667Z,6.86
2017-10-30T03:21:11.645Z,6.89
2017-10-30T03:22:11.615Z,6.90
2017-10-30T03:23:11.587Z,6.79
2017-10-30T03:24:11.553Z,6.75
2017-10-30T03:25:11.528Z,6.78
2017-10-30T03:26:11.501Z,6.79
2017-10-30T03:27:11.471Z,6.71
2017-10-30T03:28:11.441Z,6.75
2017-10-30T03:29:11.418Z,6.90
2017-10-30T03:30:11.381Z,6.76
2017-10-30T03:31:11.362Z,6.69
2017-10-30T03:32:11.327Z,6.86
2017-10-30T03:33:11.298Z,6.78
2017-10-30T03:34:11.278Z,6.72
2017-10-30T03:35:11.238Z,6.73
2017-10-30T03:36:11.213Z,6.68
2017-10-30T03:37:11.188Z,6.71
2017-10-30T03:38:11.155Z,6.69
2017-10-30T03:39:11.130Z,6.72
2017-10-30T03:40:11.097Z,6.71
2017-10-30T03:41:11.071Z,6.71
2017-10-30T03:42:11.042Z,6.72
2017-10-30T03:43:11.010Z,6.86
2017-10-30T03:44:10.983Z,6.71
2017-10-30T03:45:10.951Z,6.72
2017-10-30T03:46:10.929Z,6.69
2017-10-30T03:47:11.149Z,6.64
2017-10-30T03:48:10.885Z,6.71
2017-10-30T03:49:10.847Z,6.65
2017-10-30T03:50:10.813Z,6.71
2017-10-30T03:51:10.784Z,6.64
2017-10-30T03:52:10.753Z,6.71
2017-10-30T03:53:11.726Z,6.69
2017-10-30T03:54:10.696Z,6.64
2017-10-30T03:55:10.675Z,6.65
2017-10-30T03:56:10.647Z,6.51
2017-10-30T03:57:10.613Z,6.50
2017-10-30T03:58:10.589Z,6.73
2017-10-30T03:59:10.552Z,6.75
2017-10-30T04:00:10.525Z,6.51
2017-10-30T04:01:10.494Z,6.69
2017-10-30T04:02:10.466Z,6.55
2017-10-30T04:03:10.435Z,6.64
2017-10-30T04:04:10.403Z,6.65
2017-10-30T04:05:10.377Z,6.65
2017-10-30T04:06:10.353Z,6.68
2017-10-30T04:07:10.330Z,6.65
2017-10-30T04:08:10.296Z,6.57
2017-10-30T04:09:10.264Z,6.51
2017-10-30T04:10:10.240Z,6.64
2017-10-30T04:11:10.209Z,6.55
2017-10-30T04:12:10.177Z,6.68
2017-10-30T04:13:10.145Z,6.65
2017-10-30T04:14:10.120Z,6.63
2017-10-30T04:15:10.092Z,6.69
2017-10-30T04:16:10.066Z,6.58
2017-10-30T04:17:10.284Z,6.54
2017-10-30T04:18:10.015Z,6.61
2017-10-30T04:19:09.976Z,6.64
2017-10-30T04:20:09.943Z,6.65
2017-10-30T04:21:09.919Z,6.64
2017-10-30T04:22:09.891Z,6.53
2017-10-30T04:23:09.860Z,6.57
2017-10-30T04:24:09.834Z,6.54
2017-10-30T04:25:09.808Z,6.51
2017-10-30T04:26:09.772Z,6.54
2017-10-30T04:27:09.749Z,6.39
2017-10-30T04:28:09.714Z,6.54
2017-10-30T04:29:09.698Z,6.38
2017-10-30T04:30:09.660Z,6.36
2017-10-30T04:31:09.626Z,6.38
2017-10-30T04:32:09.602Z,6.33
2017-10-30T04:33:09.569Z,6.33
2017-10-30T04:34:09.794Z,6.28
2017-10-30T04:35:09.518Z,6.13
2017-10-30T04:36:09.486Z,6.10
2017-10-30T04:37:09.458Z,6.05
2017-10-30T04:38:09.431Z,6.10
2017-10-30T04:39:09.397Z,6.24
2017-10-30T04:40:09.728Z,6.10
2017-10-30T04:41:09.342Z,6.08
2017-10-30T04:42:09.313Z,6.11
2017-10-30T04:43:09.283Z,6.13
2017-10-30T04:44:09.253Z,6.10
2017-10-30T04:45:09.222Z,6.14
2017-10-30T04:46:09.449Z,6.24
2017-10-30T04:47:09.168Z,6.11
2017-10-30T04:48:09.139Z,6.11
2017-10-30T04:49:09.112Z,6.03
2017-10-30T04:50:09.083Z,6.03
2017-10-30T04:51:09.049Z,6.11
2017-10-30T04:52:09.329Z,6.05
2017-10-30T04:53:09.000Z,6.05
2017-10-30T04:54:08.965Z,5.98
2017-10-30T04:55:08.936Z,6.03
2017-10-30T04:56:08.909Z,6.03
2017-10-30T04:57:08.884Z,6.13
2017-10-30T04:58:08.848Z,6.08
2017-10-30T04:59:08.819Z,6.14
2017-10-30T05:00:08.796Z,6.13
2017-10-30T05:01:08.759Z,6.13
2017-10-30T05:02:08.731Z,6.05
2017-10-30T05:03:08.707Z,6.11
2017-10-30T05:04:08.674Z,6.01
2017-10-30T05:05:08.649Z,6.03
2017-10-30T05:06:08.618Z,6.05
2017-10-30T05:07:08.592Z,5.99
2017-10-30T05:08:08.555Z,6.05
2017-10-30T05:09:08.548Z,6.03
2017-10-30T05:10:08.761Z,6.06
2017-10-30T05:11:08.470Z,6.08
2017-10-30T05:12:08.440Z,6.08
2017-10-30T05:13:08.408Z,6.08
2017-10-30T05:14:08.387Z,6.05
2017-10-30T05:15:08.353Z,6.05
2017-10-30T05:16:08.326Z,6.11
2017-10-30T05:17:08.297Z,6.08
2017-10-30T05:18:08.269Z,6.10
2017-10-30T05:19:08.239Z,6.27
2017-10-30T05:20:08.206Z,6.05
2017-10-30T05:21:08.439Z,6.06
2017-10-30T05:22:08.150Z,6.06
2017-10-30T05:23:08.126Z,6.03
2017-10-30T05:24:08.091Z,6.03
2017-10-30T05:25:08.061Z,5.96
2017-10-30T05:26:08.035Z,5.95
2017-10-30T05:27:08.257Z,5.95
2017-10-30T05:28:07.973Z,5.96
2017-10-30T05:29:07.947Z,5.90
2017-10-30T05:30:07.922Z,5.93
2017-10-30T05:31:07.888Z,5.98
2017-10-30T05:32:07.863Z,5.92
2017-10-30T05:33:07.833Z,6.01
2017-10-30T05:34:07.799Z,5.90
2017-10-30T05:35:07.770Z,5.90
2017-10-30T05:36:07.745Z,5.88
2017-10-30T05:37:07.714Z,5.85
2017-10-30T05:38:07.683Z,5.90
2017-10-30T05:39:07.675Z,5.77
2017-10-30T05:40:07.633Z,5.66
2017-10-30T05:41:07.605Z,5.88
2017-10-30T05:42:07.572Z,5.77
2017-10-30T05:43:07.538Z,5.66
2017-10-30T05:44:07.505Z,5.78
2017-10-30T05:45:07.478Z,5.75
2017-10-30T05:46:07.448Z,5.63
2017-10-30T05:47:07.420Z,5.74
2017-10-30T05:48:07.396Z,5.75
2017-10-30T05:49:07.365Z,5.74
2017-10-30T05:50:07.334Z,5.83
2017-10-30T05:51:07.558Z,5.77
2017-10-30T05:52:07.273Z,5.77
2017-10-30T05:53:07.246Z,5.80
2017-10-30T05:54:07.222Z,5.78
2017-10-30T05:55:07.187Z,5.78
2017-10-30T05:56:07.163Z,5.83
2017-10-30T05:57:07.128Z,5.75
2017-10-30T05:58:07.099Z,5.75
2017-10-30T05:59:07.071Z,5.77
2017-10-30T06:00:07.041Z,5.78
2017-10-30T06:01:07.016Z,5.73
2017-10-30T06:02:06.983Z,5.77
2017-10-30T06:03:07.209Z,5.73
2017-10-30T06:04:06.927Z,5.81
2017-10-30T06:05:06.895Z,5.83
2017-10-30T06:06:06.863Z,5.75
2017-10-30T06:07:06.836Z,5.74
2017-10-30T06:08:06.807Z,5.77
2017-10-30T06:09:06.780Z,5.83
2017-10-30T06:10:06.753Z,5.73
2017-10-30T06:11:06.719Z,5.81
2017-10-30T06:12:06.696Z,5.78
2017-10-30T06:13:06.661Z,5.67
2017-10-30T06:14:06.632Z,5.77
2017-10-30T06:15:06.631Z,5.73
2017-10-30T06:16:06.580Z,5.74
2017-10-30T06:17:06.541Z,5.78
2017-10-30T06:18:06.520Z,5.78
2017-10-30T06:19:06.490Z,5.87
2017-10-30T06:20:06.457Z,5.75
2017-10-30T06:21:06.676Z,5.83
2017-10-30T06:22:06.393Z,5.98
2017-10-30T06:23:06.369Z,5.90
2017-10-30T06:24:06.343Z,6.11
2017-10-30T06:25:06.306Z,6.17
2017-10-30T06:26:06.287Z,6.10
2017-10-30T06:27:06.248Z,6.13
2017-10-30T06:28:06.225Z,6.16
2017-10-30T06:29:06.196Z,6.17
2017-10-30T06:30:06.166Z,6.35
2017-10-30T06:31:06.137Z,6.25
2017-10-30T06:32:06.104Z,6.38
2017-10-30T06:33:06.082Z,6.57
2017-10-30T06:34:06.045Z,6.71
2017-10-30T06:35:06.018Z,6.91
2017-10-30T06:36:05.984Z,6.96
2017-10-30T06:37:05.959Z,7.01
2017-10-30T06:38:05.932Z,7.04
2017-10-30T06:39:05.902Z,6.99
2017-10-30T06:40:05.873Z,7.01
2017-10-30T06:41:05.850Z,7.15
2017-10-30T06:42:05.817Z,7.24
2017-10-30T06:43:05.792Z,7.15
2017-10-30T06:44:05.755Z,7.27
2017-10-30T06:45:05.730Z,7.36
2017-10-30T06:46:05.704Z,7.27
2017-10-30T06:47:05.676Z,7.34
2017-10-30T06:48:05.640Z,7.37
2017-10-30T06:49:05.615Z,7.57
2017-10-30T06:50:05.586Z,7.74
2017-10-30T06:51:05.554Z,7.51
2017-10-30T06:52:05.530Z,7.85
2017-10-30T06:53:05.502Z,7.73
2017-10-30T06:54:05.472Z,7.86
2017-10-30T06:55:05.453Z,8.04
2017-10-30T06:56:05.414Z,7.74
2017-10-30T06:57:05.388Z,7.95
2017-10-30T06:58:05.361Z,8.27
2017-10-30T06:59:05.331Z,7.95
2017-10-30T07:00:05.303Z,7.76
2017-10-30T07:01:05.278Z,7.88
2017-10-30T07:02:05.250Z,8.22
2017-10-30T07:03:05.235Z,8.47
2017-10-30T07:04:05.211Z,8.29
2017-10-30T07:05:05.173Z,8.34
2017-10-30T07:06:05.138Z,8.31
2017-10-30T07:07:05.115Z,8.34
2017-10-30T07:08:05.082Z,8.37
2017-10-30T07:09:05.052Z,8.13
2017-10-30T07:10:05.037Z,8.28
2017-10-30T07:11:04.999Z,8.45
2017-10-30T07:12:04.966Z,8.65
2017-10-30T07:13:04.950Z,8.54
2017-10-30T07:14:04.919Z,8.12
2017-10-30T07:15:04.884Z,8.61
2017-10-30T07:16:04.858Z,8.37
2017-10-30T07:17:04.834Z,8.12
2017-10-30T07:18:04.802Z,8.46
2017-10-30T07:19:04.780Z,8.97
2017-10-30T07:20:04.752Z,8.61
2017-10-30T07:21:04.723Z,8.57
2017-10-30T07:22:04.700Z,8.76
2017-10-30T07:23:04.667Z,9.08
2017-10-30T07:24:04.638Z,8.86
2017-10-30T07:25:04.619Z,9.30
2017-10-30T07:26:04.589Z,9.70
2017-10-30T07:27:04.559Z,9.80
2017-10-30T07:28:04.527Z,10.16
2017-10-30T07:29:04.513Z,9.53
2017-10-30T07:30:04.477Z,9.73
2017-10-30T07:31:04.804Z,9.41
2017-10-30T07:32:04.428Z,9.73
2017-10-30T07:33:04.397Z,9.78
2017-10-30T07:34:04.371Z,9.44
2017-10-30T07:35:04.340Z,10.04
2017-10-30T07:36:04.338Z,10.31
2017-10-30T07:37:04.292Z,9.65
2017-10-30T07:38:04.267Z,9.35
2017-10-30T07:39:04.243Z,9.77
2017-10-30T07:40:04.221Z,9.62
2017-10-30T07:41:04.188Z,9.71
2017-10-30T07:42:04.162Z,9.22
2017-10-30T07:43:04.137Z,9.34
2017-10-30T07:44:04.112Z,9.92
2017-10-30T07:45:04.085Z,10.14
2017-10-30T07:46:04.058Z,9.50
2017-10-30T07:47:04.035Z,10.32
2017-10-30T07:48:04.001Z,10.73
2017-10-30T07:49:03.981Z,10.06
2017-10-30T07:50:03.954Z,9.48
2017-10-30T07:51:03.924Z,9.42
2017-10-30T07:52:03.898Z,9.34
2017-10-30T07:53:03.872Z,9.41
2017-10-30T07:54:03.850Z,9.58
2017-10-30T07:55:03.819Z,10.39
2017-10-30T07:56:03.791Z,10.88
2017-10-30T07:57:03.771Z,10.28
2017-10-30T07:58:03.750Z,10.84
2017-10-30T07:59:03.714Z,10.66
2017-10-30T08:00:03.696Z,10.99
2017-10-30T08:01:03.668Z,11.02
2017-10-30T08:02:03.645Z,11.39
2017-10-30T08:03:03.613Z,10.76
2017-10-30T08:04:03.596Z,10.25
2017-10-30T08:05:03.568Z,11.02
2017-10-30T08:06:03.539Z,10.72
2017-10-30T08:07:03.517Z,9.75
2017-10-30T08:08:03.488Z,10.32
2017-10-30T08:09:03.464Z,11.05
2017-10-30T08:10:03.439Z,11.26
2017-10-30T08:11:03.414Z,11.19
2017-10-30T08:12:03.389Z,10.80
2017-10-30T08:13:03.359Z,10.95
2017-10-30T08:14:03.339Z,10.04
2017-10-30T08:15:03.314Z,9.92
2017-10-30T08:16:03.293Z,10.90
2017-10-30T08:17:03.271Z,10.91
2017-10-30T08:18:03.243Z,10.76
2017-10-30T08:19:03.218Z,10.72
2017-10-30T08:20:03.187Z,10.47
2017-10-30T08:21:03.167Z,9.92
2017-10-30T08:22:03.145Z,10.80
2017-10-30T08:23:03.115Z,10.90
2017-10-30T08:24:03.090Z,11.08
2017-10-30T08:25:03.061Z,10.83
2017-10-30T08:26:03.039Z,11.01
2017-10-30T08:27:03.018Z,10.68
2017-10-30T08:28:02.991Z,11.62
2017-10-30T08:29:02.970Z,11.53
2017-10-30T08:30:02.945Z,11.21
2017-10-30T08:31:02.920Z,11.12
2017-10-30T08:32:02.899Z,11.16
2017-10-30T08:33:02.868Z,11.42
2017-10-30T08:34:02.841Z,10.52
2017-10-30T08:35:02.820Z,11.17
2017-10-30T08:36:02.794Z,11.19
2017-10-30T08:37:02.765Z,11.30
2017-10-30T08:38:02.749Z,11.20
2017-10-30T08:39:02.716Z,12.33
2017-10-30T08:40:02.697Z,12.43
2017-10-30T08:41:02.679Z,12.69
2017-10-30T08:42:02.652Z,12.37
2017-10-30T08:43:02.632Z,11.97
2017-10-30T08:44:02.598Z,11.56
2017-10-30T08:45:02.578Z,11.54
2017-10-30T08:46:02.555Z,12.36
2017-10-30T08:47:02.536Z,12.36
2017-10-30T08:48:02.502Z,12.19
2017-10-30T08:49:02.480Z,12.21
2017-10-30T08:50:02.456Z,11.64
2017-10-30T08:51:02.432Z,11.59
2017-10-30T08:52:02.407Z,11.96
2017-10-30T08:53:02.385Z,12.29
2017-10-30T08:54:02.359Z,12.74
2017-10-30T08:55:02.339Z,12.61
2017-10-30T08:56:02.317Z,13.65
2017-10-30T08:57:02.297Z,13.36
2017-10-30T08:58:02.272Z,12.66
2017-10-30T08:59:02.244Z,13.32
2017-10-30T09:00:02.224Z,13.06
2017-10-30T09:01:02.197Z,12.15
2017-10-30T09:02:02.171Z,11.74
2017-10-30T09:03:02.149Z,12.80
2017-10-30T09:04:02.124Z,12.48
2017-10-30T09:05:02.110Z,13.62
2017-10-30T09:06:02.092Z,13.27
2017-10-30T09:07:02.064Z,13.61
2017-10-30T09:08:02.039Z,13.22
2017-10-30T09:09:02.018Z,12.62
2017-10-30T09:10:01.991Z,12.52
2017-10-30T09:11:01.968Z,12.33
2017-10-30T09:12:01.956Z,12.13
2017-10-30T09:13:01.923Z,12.40
2017-10-30T09:14:01.907Z,12.31
2017-10-30T09:15:01.877Z,12.11
2017-10-30T09:16:01.861Z,12.29
2017-10-30T09:17:01.832Z,12.54
2017-10-30T09:18:01.809Z,12.66
2017-10-30T09:19:01.788Z,13.24
2017-10-30T09:20:01.764Z,12.98
2017-10-30T09:21:01.742Z,12.40
2017-10-30T09:22:01.718Z,12.77
2017-10-30T09:23:01.696Z,12.76
2017-10-30T09:24:01.670Z,12.61
2017-10-30T09:25:02.181Z,12.62
2017-10-30T09:26:01.629Z,12.33
2017-10-30T09:27:01.607Z,12.87
2017-10-30T09:28:01.590Z,13.44
2017-10-30T09:29:01.571Z,12.73
2017-10-30T09:30:01.536Z,12.89
2017-10-30T09:31:01.517Z,12.41
2017-10-30T09:32:01.493Z,12.16
2017-10-30T09:33:01.511Z,12.13
2017-10-30T09:34:01.450Z,12.08
2017-10-30T09:35:01.427Z,12.77
2017-10-30T09:36:01.406Z,13.66
2017-10-30T09:37:01.382Z,12.76
2017-10-30T09:38:01.364Z,13.17
2017-10-30T09:39:01.338Z,13.47
2017-10-30T09:40:01.310Z,13.87
2017-10-30T09:41:01.321Z,13.90
2017-10-30T09:42:01.270Z,13.73
2017-10-30T09:43:01.250Z,13.53
2017-10-30T09:44:01.262Z,14.05
2017-10-30T09:45:01.203Z,14.74
2017-10-30T09:46:01.181Z,15.05
2017-10-30T09:47:01.160Z,14.11
2017-10-30T09:48:01.136Z,14.17
2017-10-30T09:49:01.114Z,12.87
2017-10-30T09:50:01.100Z,12.48
2017-10-30T09:51:01.073Z,13.01
2017-10-30T09:52:01.044Z,13.65
2017-10-30T09:53:01.026Z,13.32
2017-10-30T09:54:01.005Z,12.84
2017-10-30T09:55:00.982Z,13.10
2017-10-30T09:56:00.960Z,14.08
2017-10-30T09:57:00.937Z,13.80
2017-10-30T09:58:00.924Z,13.10
2017-10-30T09:59:00.895Z,12.29
2017-10-30T10:00:00.874Z,12.46
2017-10-30T10:01:00.854Z,13.32
2017-10-30T10:02:00.825Z,14.09
2017-10-30T10:03:01.056Z,14.24
2017-10-30T10:04:00.781Z,13.46
2017-10-30T10:05:00.767Z,13.32
2017-10-30T10:06:00.745Z,13.59
2017-10-30T10:07:00.716Z,12.43
2017-10-30T10:08:00.701Z,12.76
2017-10-30T10:09:00.675Z,12.33
2017-10-30T10:10:00.652Z,12.46
2017-10-30T10:11:00.631Z,12.58
2017-10-30T10:12:00.609Z,13.72
2017-10-30T10:13:00.591Z,14.39
2017-10-30T10:14:00.565Z,14.53
2017-10-30T10:15:00.544Z,14.11
2017-10-30T10:16:00.522Z,13.69
2017-10-30T10:17:00.500Z,14.13
2017-10-30T10:18:00.474Z,13.90
2017-10-30T10:19:00.452Z,13.19
2017-10-30T10:20:00.434Z,13.10
2017-10-30T10:21:00.414Z,12.87
2017-10-30T10:22:00.397Z,12.95
2017-10-30T10:23:00.371Z,13.87
2017-10-30T10:24:00.347Z,13.19
2017-10-30T10:25:00.322Z,12.56
2017-10-30T10:26:00.305Z,13.53
2017-10-30T10:27:00.285Z,13.32
2017-10-30T10:28:00.254Z,12.76
2017-10-30T10:29:00.239Z,13.29
2017-10-30T10:30:00.218Z,13.62
2017-10-30T10:31:00.194Z,12.63
2017-10-30T10:32:00.168Z,12.98
2017-10-30T10:33:00.154Z,12.74
2017-10-30T10:34:00.123Z,13.38
2017-10-30T10:35:00.107Z,14.26
2017-10-30T10:36:00.086Z,13.62
2017-10-30T10:37:00.075Z,13.10
2017-10-30T10:38:00.047Z,13.07
2017-10-30T10:39:00.018Z,12.98
2017-10-30T10:39:59.996Z,13.25
2017-10-30T10:40:59.975Z,13.43
2017-10-30T10:41:59.960Z,13.09
2017-10-30T10:42:59.933Z,12.91
2017-10-30T10:43:59.907Z,12.55
2017-10-30T10:44:59.886Z,12.74
2017-10-30T10:45:59.868Z,13.55
2017-10-30T10:46:59.842Z,13.38
2017-10-30T10:47:59.830Z,14.29
2017-10-30T10:48:59.818Z,14.57
2017-10-30T10:49:59.779Z,13.96
2017-10-30T10:50:59.759Z,14.11
2017-10-30T10:51:59.738Z,13.83
2017-10-30T10:52:59.716Z,13.86
2017-10-30T10:53:59.692Z,13.96
2017-10-30T10:54:59.669Z,14.24
2017-10-30T10:55:59.647Z,13.91
2017-10-30T10:56:59.636Z,14.30
2017-10-30T10:57:59.610Z,13.12
2017-10-30T10:58:59.597Z,12.76
2017-10-30T10:59:59.573Z,13.63
2017-10-30T11:00:59.549Z,13.88
2017-10-30T11:01:59.525Z,14.42
2017-10-30T11:02:59.502Z,14.23
2017-10-30T11:03:59.482Z,13.03
2017-10-30T11:04:59.461Z,12.91
2017-10-30T11:05:59.440Z,12.92
2017-10-30T11:06:59.430Z,13.09
2017-10-30T11:07:59.406Z,13.41
2017-10-30T11:08:59.376Z,14.52
2017-10-30T11:09:59.357Z,14.85
2017-10-30T11:10:59.340Z,14.91
2017-10-30T11:11:59.326Z,14.95
2017-10-30T11:12:59.295Z,15.34
2017-10-30T11:13:59.278Z,15.51
2017-10-30T11:14:59.256Z,15.56
2017-10-30T11:15:59.237Z,15.56
2017-10-30T11:16:59.213Z,15.78
2017-10-30T11:17:59.192Z,15.60
2017-10-30T11:18:59.171Z,14.31
2017-10-30T11:19:59.148Z,13.66
2017-10-30T11:20:59.132Z,14.05
2017-10-30T11:21:59.114Z,14.26
2017-10-30T11:22:59.099Z,14.71
2017-10-30T11:23:59.070Z,15.92
2017-10-30T11:24:59.053Z,14.83
2017-10-30T11:25:59.034Z,14.85
2017-10-30T11:26:59.016Z,15.89
2017-10-30T11:27:59.001Z,15.95
2017-10-30T11:28:58.974Z,14.69
2017-10-30T11:29:58.955Z,13.66
2017-10-30T11:30:58.943Z,13.84
2017-10-30T11:31:58.919Z,13.63
2017-10-30T11:32:58.907Z,13.19
2017-10-30T11:33:58.880Z,13.09
2017-10-30T11:34:58.864Z,13.31
2017-10-30T11:35:58.848Z,13.10
2017-10-30T11:36:58.827Z,14.53
2017-10-30T11:37:58.802Z,14.11
2017-10-30T11:38:58.784Z,14.01
2017-10-30T11:39:58.766Z,13.31
2017-10-30T11:40:58.748Z,12.56
2017-10-30T11:41:58.730Z,12.05
2017-10-30T11:42:58.705Z,12.41
2017-10-30T11:43:58.687Z,12.49
2017-10-30T11:44:58.674Z,13.12
2017-10-30T11:45:58.654Z,14.29
2017-10-30T11:46:58.630Z,14.71
2017-10-30T11:47:58.608Z,13.87
2017-10-30T11:48:58.591Z,13.57
2017-10-30T11:49:58.566Z,13.06
2017-10-30T11:50:58.553Z,12.44
2017-10-30T11:51:58.542Z,12.79
2017-10-30T11:52:58.511Z,11.88
2017-10-30T11:53:58.493Z,11.54
2017-10-30T11:54:58.472Z,11.11
2017-10-30T11:55:58.450Z,10.93
2017-10-30T11:56:58.432Z,10.80
2017-10-30T11:57:58.400Z,10.68
2017-10-30T11:58:58.390Z,10.73
2017-10-30T11:59:58.358Z,11.01
2017-10-30T12:00:58.341Z,11.97
2017-10-30T12:01:58.670Z,13.09
2017-10-30T12:02:58.294Z,12.01
2017-10-30T12:03:58.271Z,11.54
2017-10-30T12:04:58.254Z,11.56
2017-10-30T12:05:58.230Z,11.27
2017-10-30T12:06:58.207Z,11.53
2017-10-30T12:07:58.192Z,11.23
2017-10-30T12:08:58.167Z,11.66
2017-10-30T12:09:58.146Z,11.97
2017-10-30T12:10:58.111Z,12.43
2017-10-30T12:11:58.091Z,13.06
2017-10-30T12:12:58.071Z,11.66
2017-10-30T12:13:58.048Z,10.84
2017-10-30T12:14:58.050Z,10.72
2017-10-30T12:15:57.999Z,10.70
2017-10-30T12:16:57.976Z,10.70
2017-10-30T12:17:57.965Z,10.69
2017-10-30T12:18:57.925Z,10.65
2017-10-30T12:19:57.901Z,10.76
2017-10-30T12:20:57.897Z,10.63
2017-10-30T12:21:57.853Z,10.44
2017-10-30T12:22:57.839Z,10.36
2017-10-30T12:23:57.811Z,10.69
2017-10-30T12:24:58.036Z,10.63
2017-10-30T12:25:57.763Z,10.35
2017-10-30T12:26:57.741Z,10.51
2017-10-30T12:27:57.715Z,10.47
2017-10-30T12:28:57.692Z,10.57
2017-10-30T12:29:57.667Z,10.94
2017-10-30T12:30:57.636Z,10.62
2017-10-30T12:31:57.616Z,10.47
2017-10-30T12:32:57.587Z,10.49
2017-10-30T12:33:57.564Z,10.57
2017-10-30T12:34:57.539Z,10.42
2017-10-30T12:35:57.514Z,10.47
2017-10-30T12:36:57.496Z,10.43
2017-10-30T12:37:57.464Z,10.44
2017-10-30T12:38:57.446Z,11.45
2017-10-30T12:39:57.415Z,11.84
2017-10-30T12:40:57.390Z,11.48
2017-10-30T12:41:57.370Z,10.73
2017-10-30T12:42:57.354Z,10.65
2017-10-30T12:43:57.311Z,10.58
2017-10-30T12:44:57.286Z,10.84
2017-10-30T12:45:57.267Z,11.27
2017-10-30T12:46:57.243Z,11.96
2017-10-30T12:47:57.215Z,11.46
2017-10-30T12:48:57.191Z,11.62
2017-10-30T12:49:57.170Z,12.07
2017-10-30T12:50:57.141Z,12.40
2017-10-30T12:51:57.112Z,11.36
2017-10-30T12:52:57.096Z,10.90
2017-10-30T12:53:57.064Z,11.88
2017-10-30T12:54:57.045Z,12.29
2017-10-30T12:55:57.017Z,11.82
2017-10-30T12:56:56.990Z,12.44
2017-10-30T12:57:56.981Z,11.45
2017-10-30T12:58:56.950Z,11.78
2017-10-30T12:59:56.934Z,12.44
2017-10-30T13:00:56.899Z,12.49
2017-10-30T13:01:56.877Z,11.78
2017-10-30T13:02:56.852Z,12.30
2017-10-30T13:03:56.825Z,12.30
2017-10-30T13:04:56.797Z,12.59
2017-10-30T13:05:57.027Z,12.00
2017-10-30T13:06:56.757Z,11.59